Time;durP1;ratioP1;P1;durP2;ratioP2;P2;SDS_P1;SDS_P2;PMS_P1;PMS_P2;Temp;Humidity;BMP_temperature;BMP_pressure;BME280_temperature;BME280_humidity;BME280_pressure;Samples;Min_cycle;Max_cycle;Signal;HPM_P1;HPM_P2
2023/06/27 00:04:23;;;;;;;1.30;1.15;;;21.20;72.70;;;;;;10449565;28;20532;-67
2023/06/27 00:09:24;;;;;;;2.00;1.67;;;21.20;72.70;;;;;;10456002;28;20596;-65
2023/06/27 00:14:25;;;;;;;3.17;1.27;;;21.20;72.70;;;;;;10449018;28;20075;-65
2023/06/27 00:19:26;;;;;;;2.08;1.10;;;21.10;72.70;;;;;;10450105;28;20539;-66
2023/06/27 00:24:26;;;;;;;3.72;1.40;;;21.10;72.80;;;;;;10446718;28;20485;-65
2023/06/27 00:29:27;;;;;;;1.75;0.98;;;21.10;72.90;;;;;;10450365;28;20432;-67
2023/06/27 00:34:27;;;;;;;1.95;1.25;;;21.10;72.90;;;;;;10442487;28;20099;-66
2023/06/27 00:39:28;;;;;;;3.15;1.58;;;21.00;72.90;;;;;;10432510;28;20045;-64
2023/06/27 00:44:29;;;;;;;1.63;1.20;;;21.00;72.90;;;;;;10449489;28;20017;-66
2023/06/27 00:49:29;;;;;;;2.40;1.35;;;20.90;72.90;;;;;;10446608;28;20013;-64
2023/06/27 00:54:30;;;;;;;2.35;1.38;;;21.00;73.00;;;;;;10448463;28;20399;-64
2023/06/27 00:59:32;;;;;;;2.28;1.52;;;20.90;73.00;;;;;;10449732;28;20029;-66
2023/06/27 01:04:33;;;;;;;1.55;1.45;;;20.90;73.10;;;;;;10447057;28;20047;-66
2023/06/27 01:09:51;;;;;;;2.05;1.08;;;20.90;73.10;;;;;;10453267;28;20031;-66
2023/06/27 01:14:56;;;;;;;3.35;1.25;;;20.90;73.10;;;;;;10455031;28;20408;-66
2023/06/27 01:19:58;;;;;;;3.15;1.33;;;20.80;73.10;;;;;;10443927;28;20036;-65
2023/06/27 01:25:00;;;;;;;2.60;1.42;;;20.80;73.10;;;;;;10447989;28;20120;-66
2023/06/27 01:30:01;;;;;;;3.58;1.63;;;20.80;73.20;;;;;;10447242;28;20017;-65
2023/06/27 01:35:08;;;;;;;3.15;1.58;;;20.70;73.20;;;;;;10449533;28;20101;-66
2023/06/27 01:40:13;;;;;;;3.80;1.50;;;20.70;73.30;;;;;;10443734;28;20478;-67
2023/06/27 01:45:15;;;;;;;2.25;1.30;;;20.70;73.30;;;;;;10438338;28;20013;-66
2023/06/27 01:50:16;;;;;;;2.13;1.30;;;20.70;73.30;;;;;;10458740;28;20025;-66
2023/06/27 01:55:17;;;;;;;2.75;1.30;;;20.70;73.40;;;;;;10447331;28;20021;-65
2023/06/27 02:00:18;;;;;;;2.10;1.50;;;20.60;73.50;;;;;;10438914;28;20017;-66
2023/06/27 02:05:19;;;;;;;1.95;1.17;;;20.60;73.60;;;;;;10440033;28;20396;-66
2023/06/27 02:10:20;;;;;;;2.88;1.60;;;20.60;73.60;;;;;;10446018;28;20249;-66
2023/06/27 02:15:23;;;;;;;1.70;1.38;;;20.60;73.70;;;;;;10443068;28;20032;-66
2023/06/27 02:20:24;;;;;;;2.28;1.30;;;20.50;73.70;;;;;;10437018;28;20412;-66
2023/06/27 02:25:25;;;;;;;2.53;1.30;;;20.50;73.80;;;;;;10436816;28;20021;-66
2023/06/27 02:30:26;;;;;;;3.72;1.38;;;20.50;73.90;;;;;;10445822;28;20020;-66
2023/06/27 02:35:26;;;;;;;2.28;1.55;;;20.50;74.00;;;;;;10442943;28;20017;-66
2023/06/27 02:40:28;;;;;;;3.05;1.40;;;20.40;73.90;;;;;;10446023;28;20392;-66
2023/06/27 02:45:28;;;;;;;2.05;1.60;;;20.50;74.00;;;;;;10440067;28;20044;-66
2023/06/27 02:50:29;;;;;;;2.28;1.50;;;20.40;74.10;;;;;;10448232;28;20099;-66
2023/06/27 02:55:30;;;;;;;2.30;1.40;;;20.40;74.80;;;;;;10427559;28;20120;-66
2023/06/27 03:00:30;;;;;;;3.00;1.60;;;20.40;74.30;;;;;;10432778;28;20026;-66
2023/06/27 03:05:31;;;;;;;4.05;1.60;;;20.30;74.20;;;;;;10444312;28;20635;-67
2023/06/27 03:10:31;;;;;;;3.17;1.83;;;20.30;74.30;;;;;;10447970;28;20035;-65
2023/06/27 03:15:32;;;;;;;4.22;1.63;;;20.40;74.50;;;;;;10442481;28;20043;-66
2023/06/27 03:20:33;;;;;;;1.92;1.30;;;20.30;74.50;;;;;;10445338;28;20512;-66
2023/06/27 03:25:33;;;;;;;2.55;1.52;;;20.30;74.60;;;;;;10434509;28;20122;-66
2023/06/27 03:30:34;;;;;;;1.65;1.50;;;20.30;74.60;;;;;;10433472;28;20028;-64
2023/06/27 03:35:34;;;;;;;2.85;1.73;;;20.30;74.70;;;;;;10439271;28;20103;-66
2023/06/27 03:40:35;;;;;;;4.93;1.88;;;20.30;74.80;;;;;;10438962;28;20025;-66
2023/06/27 03:45:36;;;;;;;2.60;1.90;;;20.20;74.70;;;;;;10434634;28;20025;-66
2023/06/27 03:50:36;;;;;;;3.45;1.88;;;20.20;74.80;;;;;;10448767;28;20020;-67
2023/06/27 03:55:40;;;;;;;2.70;1.67;;;20.20;74.90;;;;;;10443034;28;20025;-66
2023/06/27 04:00:42;;;;;;;3.30;2.00;;;20.20;74.90;;;;;;10434415;28;20017;-66
2023/06/27 04:05:43;;;;;;;3.05;1.85;;;20.20;75.00;;;;;;10436399;28;20168;-66
2023/06/27 04:10:43;;;;;;;3.25;1.85;;;20.20;75.00;;;;;;10442967;28;20043;-66
2023/06/27 04:15:44;;;;;;;4.43;2.45;;;20.20;75.10;;;;;;10446664;28;20028;-67
2023/06/27 04:20:45;;;;;;;2.58;1.85;;;20.20;75.10;;;;;;10452106;28;20127;-66
2023/06/27 04:26:07;;;;;;;4.75;2.00;;;20.20;75.20;;;;;;10447608;28;20025;-65
2023/06/27 04:31:08;;;;;;;5.35;2.22;;;20.10;75.40;;;;;;10434835;28;20028;-66
2023/06/27 04:36:09;;;;;;;2.70;1.77;;;20.10;75.20;;;;;;10447482;28;20504;-66
2023/06/27 04:41:11;;;;;;;5.00;1.98;;;20.10;75.30;;;;;;10437566;28;20020;-67
2023/06/27 04:46:11;;;;;;;5.05;1.92;;;20.10;75.40;;;;;;10443916;28;20042;-66
2023/06/27 04:51:12;;;;;;;3.65;1.92;;;20.10;75.50;;;;;;10445838;28;20503;-65
2023/06/27 04:56:13;;;;;;;2.92;1.73;;;20.10;75.50;;;;;;10448126;28;20036;-66
2023/06/27 05:01:13;;;;;;;5.40;1.88;;;20.10;75.60;;;;;;10446203;28;20059;-67
2023/06/27 05:06:14;;;;;;;4.10;2.00;;;20.10;75.60;;;;;;10443522;28;20033;-67
2023/06/27 05:11:15;;;;;;;2.90;1.80;;;20.10;75.70;;;;;;10452589;28;20515;-66
2023/06/27 05:16:16;;;;;;;3.05;1.80;;;20.10;75.70;;;;;;10442267;28;20028;-66
2023/06/27 05:21:16;;;;;;;2.08;1.58;;;20.10;75.80;;;;;;10448901;28;20036;-66
2023/06/27 05:26:17;;;;;;;4.68;2.17;;;20.10;76.40;;;;;;10449534;28;20148;-67
2023/06/27 05:31:17;;;;;;;3.17;1.65;;;20.10;75.90;;;;;;10443054;28;20557;-65
2023/06/27 05:36:18;;;;;;;2.35;1.70;;;20.10;75.80;;;;;;10448472;28;20345;-66
2023/06/27 05:41:19;;;;;;;4.97;1.98;;;20.10;76.00;;;;;;10459572;28;20033;-66
2023/06/27 05:46:19;;;;;;;3.45;1.80;;;20.10;75.90;;;;;;10445543;28;20035;-67
2023/06/27 05:51:22;;;;;;;4.70;1.88;;;20.20;76.00;;;;;;10442984;28;20508;-65
2023/06/27 05:56:22;;;;;;;4.13;1.83;;;20.20;76.00;;;;;;10451198;28;20404;-66
2023/06/27 06:01:23;;;;;;;2.72;1.58;;;20.20;76.00;;;;;;10432752;28;20029;-64
2023/06/27 06:06:24;;;;;;;4.65;1.70;;;20.20;76.00;;;;;;10439664;28;20397;-66
2023/06/27 06:11:24;;;;;;;1.80;1.40;;;20.30;76.10;;;;;;10440078;28;20508;-67
2023/06/27 06:16:25;;;;;;;2.72;1.50;;;20.30;76.00;;;;;;10438570;28;20225;-67
2023/06/27 06:21:27;;;;;;;3.47;1.50;;;20.30;75.90;;;;;;10446086;28;20159;-68
2023/06/27 06:26:27;;;;;;;1.75;1.23;;;20.40;75.70;;;;;;10445889;28;20159;-67
2023/06/27 06:31:28;;;;;;;2.58;1.60;;;20.40;75.60;;;;;;10448891;28;20063;-66
2023/06/27 06:36:28;;;;;;;3.85;1.50;;;20.50;75.60;;;;;;10440186;28;20091;-64
2023/06/27 06:41:30;;;;;;;2.00;1.30;;;20.50;75.40;;;;;;10452245;28;20506;-66
2023/06/27 06:46:30;;;;;;;1.83;1.40;;;20.50;75.40;;;;;;10450066;28;20024;-67
2023/06/27 06:51:31;;;;;;;1.55;1.10;;;20.50;75.30;;;;;;10443031;28;20477;-66
2023/06/27 06:56:32;;;;;;;1.77;1.10;;;20.50;75.30;;;;;;10442288;28;20059;-66
2023/06/27 07:01:32;;;;;;;1.55;1.35;;;20.50;75.20;;;;;;10443659;28;20393;-66
2023/06/27 07:06:33;;;;;;;1.77;1.13;;;20.60;75.30;;;;;;10443129;28;20150;-65
2023/06/27 07:11:34;;;;;;;2.20;1.40;;;20.60;75.20;;;;;;10446740;28;20032;-66
2023/06/27 07:16:34;;;;;;;2.45;1.40;;;20.60;75.20;;;;;;10454298;28;20293;-65
2023/06/27 07:21:35;;;;;;;1.63;1.25;;;20.60;75.10;;;;;;10450734;28;20031;-66
2023/06/27 07:26:35;;;;;;;2.53;1.33;;;20.90;75.20;;;;;;10433188;28;20025;-65
2023/06/27 07:31:36;;;;;;;2.15;1.17;;;20.70;75.10;;;;;;10448987;28;20067;-66
2023/06/27 07:36:38;;;;;;;4.32;1.50;;;20.60;75.00;;;;;;10444062;28;20554;-66
2023/06/27 07:41:39;;;;;;;2.03;1.10;;;20.70;75.00;;;;;;10444228;28;20029;-65
2023/06/27 07:46:39;;;;;;;2.35;1.00;;;20.60;74.90;;;;;;10442759;28;20017;-65
2023/06/27 07:51:40;;;;;;;1.50;0.90;;;20.70;74.90;;;;;;10453623;28;20018;-65
2023/06/27 07:56:47;;;;;;;1.90;1.05;;;20.80;74.80;;;;;;10449918;28;20052;-65
2023/06/27 08:01:48;;;;;;;1.55;1.10;;;20.90;74.80;;;;;;10437169;28;20203;-65
2023/06/27 08:06:48;;;;;;;1.52;1.00;;;20.80;74.80;;;;;;10435405;28;20079;-63
2023/06/27 08:11:50;;;;;;;2.35;1.00;;;20.90;74.80;;;;;;10443088;28;20021;-65
2023/06/27 08:16:50;;;;;;;1.88;1.10;;;20.90;75.30;;;;;;10430444;28;20109;-66
2023/06/27 08:21:51;;;;;;;1.63;1.10;;;20.90;74.70;;;;;;10442814;28;20037;-65
2023/06/27 08:26:55;;;;;;;1.52;1.05;;;20.90;74.70;;;;;;10440539;28;20025;-64
2023/06/27 08:31:59;;;;;;;1.30;0.93;;;20.90;74.70;;;;;;10450493;28;20029;-66
2023/06/27 08:37:00;;;;;;;2.20;0.98;;;21.00;74.60;;;;;;10443834;28;20029;-65
2023/06/27 08:42:01;;;;;;;1.80;0.95;;;21.00;74.60;;;;;;10447173;28;20021;-66
2023/06/27 08:47:05;;;;;;;1.75;1.05;;;21.00;74.50;;;;;;10441838;28;20037;-66
2023/06/27 08:52:11;;;;;;;2.60;1.13;;;21.00;74.50;;;;;;10459144;28;20066;-64
2023/06/27 08:57:12;;;;;;;1.95;0.93;;;21.00;74.40;;;;;;10445313;28;20056;-65
2023/06/27 09:02:13;;;;;;;3.33;0.90;;;21.10;74.40;;;;;;10445274;28;20040;-66
2023/06/27 09:07:14;;;;;;;2.40;0.95;;;21.10;74.30;;;;;;10445916;28;21125;-65
2023/06/27 09:12:15;;;;;;;2.20;1.20;;;21.10;74.30;;;;;;10439619;28;20024;-67
2023/06/27 09:17:15;;;;;;;1.83;0.85;;;21.10;74.30;;;;;;10443443;28;20416;-66
2023/06/27 09:22:18;;;;;;;1.67;0.80;;;21.20;74.30;;;;;;10447666;28;20108;-66
2023/06/27 09:27:34;;;;;;;1.25;0.80;;;21.20;74.20;;;;;;10444011;28;20070;-66
2023/06/27 09:32:54;;;;;;;1.48;0.70;;;21.20;74.10;;;;;;10446747;28;20125;-68
2023/06/27 09:38:08;;;;;;;4.32;1.38;;;21.20;73.90;;;;;;10450186;28;20393;-70
2023/06/27 09:43:09;;;;;;;3.80;1.15;;;21.40;73.30;;;;;;10448719;28;20432;-70
2023/06/27 09:48:10;;;;;;;3.20;0.90;;;21.50;73.50;;;;;;10447077;28;20025;-75
2023/06/27 09:53:11;;;;;;;4.15;1.10;;;21.60;73.20;;;;;;10444057;28;20025;-69
2023/06/27 09:58:11;;;;;;;4.45;0.75;;;21.60;73.20;;;;;;10449658;28;20021;-71
2023/06/27 10:03:12;;;;;;;3.65;0.98;;;21.70;72.90;;;;;;10444490;28;20009;-70
2023/06/27 10:08:13;;;;;;;5.13;0.70;;;21.70;72.80;;;;;;10442403;28;20048;-69
2023/06/27 10:13:14;;;;;;;4.00;0.80;;;21.60;73.00;;;;;;10438142;28;20029;-70
2023/06/27 10:18:15;;;;;;;1.65;0.70;;;21.60;73.30;;;;;;10451642;28;20047;-70
2023/06/27 10:23:16;;;;;;;2.10;0.70;;;21.70;73.00;;;;;;10440742;28;20060;-71
2023/06/27 10:28:20;;;;;;;3.67;0.80;;;21.80;72.40;;;;;;10446425;28;20031;-70
2023/06/27 10:33:29;;;;;;;2.70;0.80;;;21.80;72.50;;;;;;10441722;28;20047;-70
2023/06/27 10:38:41;;;;;;;2.15;0.90;;;21.80;72.30;;;;;;10447724;28;20282;-70
2023/06/27 10:43:48;;;;;;;4.10;0.80;;;22.00;72.00;;;;;;10440421;28;20053;-70
2023/06/27 10:48:50;;;;;;;4.50;0.82;;;22.10;71.30;;;;;;10441279;28;20021;-70
2023/06/27 10:54:11;;;;;;;2.25;0.70;;;22.20;71.50;;;;;;10450201;28;20021;-72
2023/06/27 10:59:18;;;;;;;2.10;0.60;;;22.30;70.00;;;;;;10432206;28;20069;-70
2023/06/27 11:04:39;;;;;;;5.95;0.90;;;22.40;70.20;;;;;;10437292;28;20017;-69
2023/06/27 11:09:55;;;;;;;1.95;0.52;;;22.30;70.00;;;;;;10440246;28;20017;-72
2023/06/27 11:14:56;;;;;;;6.07;1.70;;;22.30;69.80;;;;;;10440873;28;20032;-73
2023/06/27 11:20:00;;;;;;;4.63;0.90;;;22.30;70.40;;;;;;10446631;28;20033;-71
2023/06/27 11:25:11;;;;;;;7.45;0.88;;;22.30;70.80;;;;;;10438014;28;20370;-71
2023/06/27 11:30:15;;;;;;;1.85;0.80;;;22.40;70.00;;;;;;10443846;28;20024;-71
2023/06/27 11:35:16;;;;;;;3.00;0.80;;;22.50;70.70;;;;;;10443444;28;20435;-70
2023/06/27 11:40:16;;;;;;;2.38;0.88;;;22.60;70.00;;;;;;10443744;28;20047;-69
2023/06/27 11:45:17;;;;;;;3.17;0.90;;;22.50;70.20;;;;;;10446775;28;20128;-71
2023/06/27 11:50:18;;;;;;;2.92;1.05;;;22.40;70.30;;;;;;10441388;28;20018;-71
2023/06/27 11:55:18;;;;;;;5.18;0.70;;;22.30;69.90;;;;;;10439985;28;20033;-70
2023/06/27 12:00:24;;;;;;;2.88;1.00;;;22.30;70.10;;;;;;10447787;28;20516;-71
2023/06/27 12:05:25;;;;;;;2.67;1.20;;;22.30;70.00;;;;;;10457100;28;20557;-70
2023/06/27 12:10:25;;;;;;;4.63;1.20;;;22.40;69.80;;;;;;10450380;28;20025;-72
2023/06/27 12:15:26;;;;;;;3.58;0.70;;;22.60;69.60;;;;;;10451642;28;20060;-72
2023/06/27 12:20:42;;;;;;;3.08;0.73;;;22.70;69.40;;;;;;10457115;28;20092;-70
2023/06/27 12:25:44;;;;;;;7.13;0.80;;;22.80;67.90;;;;;;10447944;28;20026;-70
2023/06/27 12:30:44;;;;;;;2.47;0.70;;;22.70;68.60;;;;;;10447015;28;20477;-71
2023/06/27 12:35:45;;;;;;;2.28;0.60;;;22.90;68.30;;;;;;10445331;28;20028;-69
2023/06/27 12:40:46;;;;;;;1.70;0.70;;;23.00;67.80;;;;;;10457226;28;20502;-70
2023/06/27 12:46:03;;;;;;;1.38;0.70;;;22.90;67.70;;;;;;10458781;28;20021;-70
2023/06/27 12:51:04;;;;;;;4.60;0.82;;;22.90;67.60;;;;;;10458820;28;20037;-70
2023/06/27 12:56:05;;;;;;;1.33;0.63;;;22.90;68.00;;;;;;10447204;28;20497;-70
2023/06/27 13:01:05;;;;;;;3.17;0.90;;;23.00;68.00;;;;;;10442118;28;20093;-70
2023/06/27 13:06:06;;;;;;;4.05;1.00;;;23.10;68.00;;;;;;10438910;28;20029;-70
2023/06/27 13:11:06;;;;;;;1.30;0.80;;;23.30;68.10;;;;;;10456011;28;20017;-70
2023/06/27 13:16:08;;;;;;;2.35;1.08;;;23.50;67.70;;;;;;10450136;28;20493;-70
2023/06/27 13:21:08;;;;;;;4.07;1.00;;;23.70;67.40;;;;;;10460594;28;20103;-70
2023/06/27 13:26:09;;;;;;;4.38;0.93;;;23.70;67.00;;;;;;10444228;28;20435;-70
2023/06/27 13:31:10;;;;;;;2.63;0.90;;;23.70;67.50;;;;;;10446749;28;20017;-71
2023/06/27 13:36:11;;;;;;;4.15;1.13;;;23.70;67.30;;;;;;10434066;28;20025;-70
2023/06/27 13:41:11;;;;;;;2.72;1.00;;;23.80;67.50;;;;;;10440155;28;20025;-70
2023/06/27 13:46:12;;;;;;;2.78;0.75;;;23.80;67.20;;;;;;10447625;28;20030;-69
2023/06/27 13:51:13;;;;;;;2.20;1.20;;;23.80;67.20;;;;;;10445933;28;20052;-72
2023/06/27 13:56:14;;;;;;;2.53;0.98;;;23.80;66.90;;;;;;10436167;28;20104;-72
2023/06/27 14:01:14;;;;;;;3.35;0.90;;;24.00;66.90;;;;;;10436553;28;20024;-72
2023/06/27 14:06:15;;;;;;;3.40;1.00;;;24.00;66.20;;;;;;10439619;28;20392;-73
2023/06/27 14:11:18;;;;;;;5.65;1.30;;;24.10;66.00;;;;;;10439872;28;20051;-69
2023/06/27 14:16:19;;;;;;;4.18;1.00;;;24.20;66.10;;;;;;10437240;28;20477;-72
2023/06/27 14:21:21;;;;;;;2.67;1.30;;;24.00;66.40;;;;;;10436410;28;20080;-73
2023/06/27 14:26:22;;;;;;;8.60;3.25;;;24.00;66.90;;;;;;10434991;28;20071;-71
2023/06/27 14:31:24;;;;;;;5.78;2.08;;;24.10;67.00;;;;;;10445659;28;20427;-71
2023/06/27 14:36:26;;;;;;;4.22;1.20;;;24.30;67.30;;;;;;10439820;28;20024;-72
2023/06/27 14:41:27;;;;;;;4.15;1.10;;;24.40;67.10;;;;;;10440083;28;20032;-74
2023/06/27 14:46:27;;;;;;;1.23;0.80;;;24.50;67.10;;;;;;10440243;28;20028;-74
2023/06/27 14:51:28;;;;;;;2.78;1.17;;;24.50;67.10;;;;;;10439755;28;20017;-72
2023/06/27 14:56:29;;;;;;;3.53;1.20;;;24.20;67.30;;;;;;10436365;28;20519;-71
2023/06/27 15:01:29;;;;;;;2.78;0.93;;;24.20;67.30;;;;;;10440551;28;20028;-72
2023/06/27 15:06:30;;;;;;;1.75;0.98;;;24.10;67.10;;;;;;10436421;28;20386;-72
2023/06/27 15:11:30;;;;;;;3.22;0.90;;;24.20;66.70;;;;;;10441556;28;20025;-72
2023/06/27 15:16:31;;;;;;;2.28;0.85;;;24.10;66.50;;;;;;10451764;28;20497;-71
2023/06/27 15:21:31;;;;;;;3.70;0.95;;;23.90;66.90;;;;;;10441852;28;20029;-73
2023/06/27 15:26:32;;;;;;;20.52;1.40;;;23.80;67.00;;;;;;10435449;28;20036;-76
2023/06/27 15:31:34;;;;;;;3.03;0.80;;;23.80;66.80;;;;;;10444524;28;20029;-72
2023/06/27 15:36:36;;;;;;;1.92;0.80;;;23.70;66.80;;;;;;10438959;28;20028;-73
2023/06/27 15:41:36;;;;;;;3.20;0.80;;;23.70;66.60;;;;;;10440702;28;20440;-72
2023/06/27 15:46:37;;;;;;;2.92;1.00;;;23.40;66.80;;;;;;10443458;28;20083;-74
2023/06/27 15:51:38;;;;;;;2.78;1.30;;;23.30;67.40;;;;;;10441259;28;20584;-73
2023/06/27 15:56:40;;;;;;;1.60;0.85;;;23.10;67.60;;;;;;10446261;28;20044;-72
2023/06/27 16:01:41;;;;;;;3.22;1.20;;;23.00;67.70;;;;;;10449263;28;20025;-74
2023/06/27 16:06:42;;;;;;;6.18;1.20;;;23.00;68.20;;;;;;10448221;28;20020;-75
2023/06/27 16:11:43;;;;;;;0.90;0.70;;;22.90;67.90;;;;;;10435681;28;20017;-70
2023/06/27 16:16:43;;;;;;;2.05;0.80;;;22.90;67.90;;;;;;10444944;28;20022;-74
2023/06/27 16:21:44;;;;;;;5.00;1.02;;;22.90;67.80;;;;;;10440904;28;20562;-73
2023/06/27 16:26:45;;;;;;;2.35;0.73;;;22.80;67.80;;;;;;10440513;28;20401;-70
2023/06/27 16:31:45;;;;;;;5.03;1.48;;;22.70;68.00;;;;;;10448500;28;20021;-74
2023/06/27 16:36:46;;;;;;;4.68;1.08;;;22.60;68.30;;;;;;10451850;28;20531;-70
2023/06/27 16:41:46;;;;;;;4.10;1.10;;;22.60;69.30;;;;;;10444823;28;20040;-69
2023/06/27 16:46:48;;;;;;;3.35;0.90;;;22.30;69.20;;;;;;10450943;28;20025;-75
2023/06/27 16:51:49;;;;;;;2.67;1.00;;;22.10;69.80;;;;;;10450006;28;20087;-71
2023/06/27 16:56:49;;;;;;;3.80;1.20;;;22.10;69.80;;;;;;10449719;28;20067;-70
2023/06/27 17:01:51;;;;;;;3.45;1.05;;;22.00;70.00;;;;;;10456667;28;20393;-72
2023/06/27 17:06:51;;;;;;;5.07;0.95;;;21.70;70.60;;;;;;10448143;28;20025;-71
2023/06/27 17:11:52;;;;;;;3.55;0.98;;;21.70;70.90;;;;;;10451962;28;20077;-71
2023/06/27 17:16:53;;;;;;;4.68;1.05;;;21.70;70.80;;;;;;10448177;28;20060;-73
2023/06/27 17:21:53;;;;;;;6.32;1.58;;;22.10;71.10;;;;;;10451230;28;20025;-72
2023/06/27 17:26:54;;;;;;;3.13;1.00;;;21.60;71.30;;;;;;10453432;28;20132;-72
2023/06/27 17:31:55;;;;;;;5.55;1.30;;;21.60;71.50;;;;;;10456773;28;20029;-68
2023/06/27 17:36:55;;;;;;;4.85;1.25;;;21.50;71.80;;;;;;10453877;28;20024;-69
2023/06/27 17:41:56;;;;;;;3.05;1.20;;;21.70;71.60;;;;;;10453157;28;20240;-69
2023/06/27 17:46:56;;;;;;;7.00;1.30;;;21.80;71.30;;;;;;10454858;28;20519;-68
2023/06/27 17:51:58;;;;;;;5.28;1.25;;;22.00;71.20;;;;;;10460768;28;20021;-68
2023/06/27 17:57:02;;;;;;;4.82;1.15;;;22.10;71.10;;;;;;10460090;28;20029;-69
2023/06/27 18:02:03;;;;;;;5.50;1.58;;;22.20;71.00;;;;;;10446564;28;20033;-68
2023/06/27 18:07:12;;;;;;;1.83;0.80;;;22.30;71.00;;;;;;10453180;28;20017;-69
2023/06/27 18:12:13;;;;;;;3.13;1.20;;;22.30;71.00;;;;;;10456403;28;20411;-69
2023/06/27 18:17:14;;;;;;;2.80;1.20;;;22.30;71.00;;;;;;10452915;28;20029;-68
2023/06/27 18:22:14;;;;;;;2.60;0.85;;;22.30;71.00;;;;;;10427661;28;20496;-69
2023/06/27 18:27:15;;;;;;;1.33;1.10;;;22.30;71.00;;;;;;10431963;28;20276;-67
2023/06/27 18:32:16;;;;;;;3.05;0.80;;;22.30;71.10;;;;;;10425481;28;20025;-67
2023/06/27 18:37:16;;;;;;;3.92;1.00;;;22.30;71.10;;;;;;10440843;28;20021;-68
2023/06/27 18:42:17;;;;;;;1.70;0.85;;;22.30;71.20;;;;;;10438265;28;20496;-68
2023/06/27 18:47:18;;;;;;;1.77;0.98;;;22.30;71.30;;;;;;10440208;28;20032;-68
2023/06/27 18:52:18;;;;;;;2.67;1.00;;;22.40;71.40;;;;;;10433552;28;20016;-68
2023/06/27 18:57:19;;;;;;;4.43;1.27;;;22.30;71.40;;;;;;10442365;28;20036;-69
2023/06/27 19:02:19;;;;;;;16.60;2.30;;;22.30;71.70;;;;;;10437587;28;20064;-69
2023/06/27 19:07:20;;;;;;;28.52;2.88;;;21.90;72.50;;;;;;10436038;28;20033;-69
2023/06/27 19:12:21;;;;;;;25.25;2.80;;;21.70;73.20;;;;;;10438625;28;20010;-68
2023/06/27 19:17:22;;;;;;;7.78;2.00;;;21.70;73.40;;;;;;10440765;28;20049;-67
2023/06/27 19:22:22;;;;;;;10.85;1.90;;;21.80;73.30;;;;;;10435573;28;20497;-67
2023/06/27 19:27:23;;;;;;;9.60;1.60;;;21.90;73.20;;;;;;10439570;28;20032;-67
2023/06/27 19:32:24;;;;;;;11.15;2.20;;;21.90;73.10;;;;;;10436386;28;20024;-67
2023/06/27 19:37:25;;;;;;;13.63;2.08;;;22.00;73.00;;;;;;10432926;28;20508;-67
2023/06/27 19:42:25;;;;;;;9.30;1.58;;;21.90;72.90;;;;;;10438755;28;20036;-67
2023/06/27 19:47:26;;;;;;;9.05;1.92;;;22.00;72.90;;;;;;10431245;28;20021;-67
2023/06/27 19:52:27;;;;;;;10.50;1.75;;;22.00;72.90;;;;;;10440025;28;20052;-67
2023/06/27 19:57:28;;;;;;;12.02;2.53;;;22.00;72.90;;;;;;10443865;28;20026;-71
2023/06/27 20:02:28;;;;;;;8.38;1.52;;;22.00;73.00;;;;;;10439099;28;20532;-66
2023/06/27 20:07:29;;;;;;;9.10;1.25;;;22.00;73.00;;;;;;10443880;28;20025;-67
2023/06/27 20:12:30;;;;;;;6.85;1.42;;;22.00;73.20;;;;;;10431672;28;20048;-67
2023/06/27 20:17:30;;;;;;;6.40;1.58;;;22.00;73.20;;;;;;10445321;28;20490;-67
2023/06/27 20:22:32;;;;;;;4.28;1.50;;;22.00;73.20;;;;;;10448082;28;20025;-67
2023/06/27 20:27:33;;;;;;;3.40;1.00;;;22.00;73.20;;;;;;10437943;28;20045;-66
2023/06/27 20:32:33;;;;;;;7.03;1.90;;;22.00;73.30;;;;;;10446998;28;20029;-66
2023/06/27 20:37:35;;;;;;;5.55;1.48;;;21.90;73.20;;;;;;10436624;28;20032;-66
2023/06/27 20:42:37;;;;;;;4.95;1.50;;;21.90;73.30;;;;;;10438262;28;20021;-67
2023/06/27 20:47:37;;;;;;;2.47;0.98;;;21.90;73.30;;;;;;10437777;28;20553;-66
2023/06/27 20:52:38;;;;;;;4.07;1.40;;;21.90;73.40;;;;;;10436115;28;20017;-66
2023/06/27 20:57:38;;;;;;;4.90;1.40;;;21.80;73.50;;;;;;10442450;28;20082;-66
2023/06/27 21:02:39;;;;;;;2.97;1.20;;;21.80;73.60;;;;;;10439954;28;20013;-66
2023/06/27 21:07:40;;;;;;;2.88;1.08;;;21.80;73.60;;;;;;10446783;28;20515;-66
2023/06/27 21:12:40;;;;;;;2.97;1.27;;;21.80;73.70;;;;;;10447220;28;20021;-66
2023/06/27 21:17:41;;;;;;;1.95;1.30;;;21.80;73.70;;;;;;10448373;28;20036;-68
2023/06/27 21:22:42;;;;;;;3.65;1.38;;;21.70;73.70;;;;;;10443856;28;20021;-69
2023/06/27 21:27:42;;;;;;;3.33;1.30;;;21.70;73.70;;;;;;10438836;28;20108;-68
2023/06/27 21:32:43;;;;;;;4.28;1.30;;;21.70;73.80;;;;;;10433798;28;20013;-68
2023/06/27 21:37:43;;;;;;;3.10;1.20;;;21.70;73.80;;;;;;10436794;28;20022;-69
2023/06/27 21:42:44;;;;;;;5.18;1.52;;;21.70;73.80;;;;;;10437550;28;20082;-69
2023/06/27 21:47:45;;;;;;;4.30;1.20;;;21.60;73.80;;;;;;10443675;28;20083;-68
2023/06/27 21:52:45;;;;;;;3.38;1.17;;;21.60;73.90;;;;;;10439100;28;20464;-68
2023/06/27 21:57:46;;;;;;;3.45;1.13;;;21.60;73.90;;;;;;10455140;28;20034;-69
2023/06/27 22:02:49;;;;;;;4.03;1.20;;;21.50;74.00;;;;;;10450648;28;20094;-69
2023/06/27 22:07:50;;;;;;;2.13;1.10;;;21.50;74.10;;;;;;10437365;28;20481;-69
2023/06/27 22:12:50;;;;;;;2.90;1.20;;;21.50;74.20;;;;;;10445335;28;20029;-69
2023/06/27 22:17:51;;;;;;;2.85;1.13;;;21.50;74.30;;;;;;10440765;28;20460;-68
2023/06/27 22:22:51;;;;;;;1.75;1.20;;;21.50;74.30;;;;;;10437833;28;20075;-68
2023/06/27 22:27:52;;;;;;;4.60;1.10;;;21.40;74.30;;;;;;10448162;28;20532;-68
2023/06/27 22:32:53;;;;;;;3.38;1.30;;;21.40;74.40;;;;;;10448230;28;20029;-68
2023/06/27 22:37:53;;;;;;;2.65;1.30;;;21.40;74.40;;;;;;10444233;28;20029;-69
2023/06/27 22:42:55;;;;;;;3.33;1.38;;;21.30;74.50;;;;;;10446202;28;20018;-68
2023/06/27 22:47:56;;;;;;;2.42;1.00;;;21.30;74.60;;;;;;10448892;28;20251;-68
2023/06/27 22:52:56;;;;;;;3.13;1.33;;;21.30;74.70;;;;;;10443703;28;20032;-68
2023/06/27 22:57:57;;;;;;;5.35;1.23;;;21.20;74.60;;;;;;10444978;28;20021;-68
2023/06/27 23:02:58;;;;;;;6.68;1.70;;;21.20;75.20;;;;;;10453669;28;20351;-68
2023/06/27 23:07:58;;;;;;;2.75;1.10;;;21.20;74.70;;;;;;10455337;28;20106;-68
2023/06/27 23:12:59;;;;;;;3.40;1.30;;;21.20;74.70;;;;;;10438937;28;20013;-69
2023/06/27 23:17:59;;;;;;;2.85;1.20;;;21.20;75.40;;;;;;10446982;28;20031;-68
2023/06/27 23:23:00;;;;;;;2.75;1.27;;;21.20;74.80;;;;;;10444960;28;20025;-68
2023/06/27 23:28:01;;;;;;;4.88;1.35;;;21.20;74.80;;;;;;10442637;28;20033;-68
2023/06/27 23:33:03;;;;;;;3.40;1.30;;;21.10;74.90;;;;;;10442630;28;20025;-69
2023/06/27 23:38:05;;;;;;;3.30;1.40;;;21.10;75.00;;;;;;10445852;28;20461;-68
2023/06/27 23:43:06;;;;;;;3.50;1.52;;;21.10;75.00;;;;;;10444191;28;20044;-68
2023/06/27 23:48:07;;;;;;;4.10;1.40;;;21.10;75.10;;;;;;10437139;28;20056;-68
2023/06/27 23:53:07;;;;;;;3.83;1.40;;;21.00;75.00;;;;;;10438906;28;20429;-68
2023/06/27 23:58:08;;;;;;;2.75;1.23;;;21.00;75.10;;;;;;10448811;28;20119;-68
